Time;durP1;ratioP1;P1;durP2;ratioP2;P2;SDS_P1;SDS_P2;PMS_P1;PMS_P2;Temp;Humidity;BMP_temperature;BMP_pressure;BME280_temperature;BME280_humidity;BME280_pressure;Samples;Min_cycle;Max_cycle;Signal;HPM_P1;HPM_P2
2023/08/15 00:01:45;;;;;;;10.47;8.83;;;;;;;21.99;100.00;98012.09;5051589;28;20212;-76
2023/08/15 00:04:12;;;;;;;10.67;8.70;;;;;;;21.93;100.00;98024.44;5051986;28;20208;-76
2023/08/15 00:06:38;;;;;;;9.93;8.90;;;;;;;21.87;100.00;98019.75;5051420;28;20228;-76
2023/08/15 00:09:06;;;;;;;10.80;9.07;;;;;;;21.87;100.00;98022.44;5051424;28;20230;-77
2023/08/15 00:11:33;;;;;;;10.33;9.23;;;;;;;21.85;100.00;98016.41;5051468;28;20624;-76
2023/08/15 00:13:59;;;;;;;11.03;8.67;;;;;;;21.79;100.00;98008.22;5051442;28;20212;-76
2023/08/15 00:16:26;;;;;;;10.73;9.17;;;;;;;21.75;100.00;98014.97;5051396;28;20201;-76
2023/08/15 00:18:52;;;;;;;10.83;9.07;;;;;;;21.71;100.00;98014.47;5051579;28;20234;-77
2023/08/15 00:21:19;;;;;;;9.83;8.70;;;;;;;21.69;100.00;98013.81;5051525;28;20239;-77
2023/08/15 00:23:45;;;;;;;11.77;9.97;;;;;;;21.71;100.00;98009.09;5051356;28;20643;-77
2023/08/15 00:26:13;;;;;;;10.80;9.60;;;;;;;21.71;100.00;98013.66;5051539;28;20250;-77
2023/08/15 00:28:40;;;;;;;11.17;9.43;;;;;;;21.70;100.00;98012.00;5051530;28;20690;-77
2023/08/15 00:31:06;;;;;;;11.33;9.43;;;;;;;21.72;100.00;98009.94;5050932;28;20239;-76
2023/08/15 00:33:33;;;;;;;11.27;10.03;;;;;;;21.75;100.00;98009.59;5051293;28;20688;-76
2023/08/15 00:35:59;;;;;;;11.20;10.07;;;;;;;21.80;100.00;98008.03;5051737;28;20586;-77
2023/08/15 00:38:26;;;;;;;11.87;9.30;;;;;;;21.86;100.00;98001.94;5051261;28;20208;-77
2023/08/15 00:40:52;;;;;;;11.27;9.37;;;;;;;21.88;100.00;98005.28;5050931;28;20239;-76
2023/08/15 00:43:20;;;;;;;10.97;9.80;;;;;;;21.89;100.00;98015.03;5051129;28;20211;-77
2023/08/15 00:45:47;;;;;;;10.40;9.40;;;;;;;21.88;100.00;98010.66;5051175;28;20306;-76
2023/08/15 00:48:13;;;;;;;10.53;9.10;;;;;;;21.88;100.00;97999.09;5051465;28;20203;-77
2023/08/15 00:50:42;;;;;;;9.97;8.97;;;;;;;21.86;100.00;98001.94;5050973;28;20235;-77
2023/08/15 00:53:11;;;;;;;9.70;8.70;;;;;;;21.81;100.00;97996.25;5051282;28;20678;-77
2023/08/15 00:55:38;;;;;;;9.90;8.43;;;;;;;21.75;100.00;97994.28;5051293;28;20261;-77
2023/08/15 00:58:05;;;;;;;9.80;8.80;;;;;;;21.69;100.00;97994.19;5051099;28;20208;-77
2023/08/15 01:00:33;;;;;;;9.60;8.57;;;;;;;21.63;100.00;97997.53;5050466;28;20739;-77
2023/08/15 01:03:00;;;;;;;10.10;9.10;;;;;;;21.55;100.00;97998.44;5051284;28;20204;-77
2023/08/15 01:05:27;;;;;;;10.83;9.07;;;;;;;21.51;100.00;98002.47;5051188;28;20204;-77
2023/08/15 01:07:54;;;;;;;10.10;8.13;;;;;;;21.49;100.00;98004.50;5050894;28;20235;-77
2023/08/15 01:10:20;;;;;;;11.07;9.13;;;;;;;21.44;100.00;97997.97;5050621;28;20228;-77
2023/08/15 01:12:52;;;;;;;8.93;8.03;;;;;;;21.39;100.00;97998.50;5050636;28;20215;-77
2023/08/15 01:15:25;;;;;;;10.40;9.40;;;;;;;21.34;100.00;97990.13;5051167;28;20791;-77
2023/08/15 01:18:01;;;;;;;10.17;9.07;;;;;;;21.29;100.00;97978.25;5050962;28;20215;-77
2023/08/15 01:20:31;;;;;;;10.20;8.93;;;;;;;21.24;100.00;97989.53;5050743;28;20231;-77
2023/08/15 01:23:01;;;;;;;9.67;8.07;;;;;;;21.21;100.00;97984.50;5050695;28;20208;-77
2023/08/15 01:25:32;;;;;;;9.77;8.77;;;;;;;21.20;100.00;97981.97;5050701;28;20215;-77
2023/08/15 01:27:59;;;;;;;10.10;9.03;;;;;;;21.18;100.00;97990.22;5053938;28;20281;-77
2023/08/15 01:30:26;;;;;;;10.43;9.20;;;;;;;21.17;100.00;97983.19;5054486;28;20250;-77
2023/08/15 01:33:00;;;;;;;9.93;8.93;;;;;;;21.14;100.00;97978.16;5054506;28;20212;-77
2023/08/15 01:35:32;;;;;;;9.37;8.33;;;;;;;21.13;100.00;97976.47;5054583;28;20565;-77
2023/08/15 01:38:03;;;;;;;11.97;9.57;;;;;;;21.13;100.00;97971.09;5054586;28;20211;-77
2023/08/15 01:40:35;;;;;;;10.20;9.07;;;;;;;21.13;100.00;97971.09;5054407;28;20827;-77
2023/08/15 01:43:03;;;;;;;10.30;9.03;;;;;;;21.13;100.00;97976.47;5054634;28;20208;-77
2023/08/15 01:45:30;;;;;;;13.10;10.40;;;;;;;21.14;100.00;97970.06;5054236;28;20682;-77
2023/08/15 01:47:57;;;;;;;11.33;10.13;;;;;;;21.13;100.00;97971.09;5054172;28;20227;-77
2023/08/15 01:50:23;;;;;;;12.97;10.47;;;;;;;21.14;100.00;97970.06;5053957;28;20228;-77
2023/08/15 01:52:50;;;;;;;14.50;10.80;;;;;;;21.15;100.00;97958.31;5054239;28;20216;-77
2023/08/15 01:55:16;;;;;;;11.23;9.77;;;;;;;21.15;100.00;97969.06;5054266;28;20208;-77
2023/08/15 01:57:44;;;;;;;11.10;9.90;;;;;;;21.08;100.00;97967.28;5054125;28;20204;-77
2023/08/15 02:00:11;;;;;;;10.90;9.73;;;;;;;21.03;100.00;97959.72;5053791;28;20319;-77
2023/08/15 02:02:38;;;;;;;12.13;10.50;;;;;;;21.02;100.00;97968.78;5053937;28;20208;-77
2023/08/15 02:05:06;;;;;;;12.80;10.57;;;;;;;21.02;100.00;97968.78;5054153;28;20208;-77
2023/08/15 02:07:32;;;;;;;13.07;10.93;;;;;;;21.03;100.00;97964.28;5053960;28;20239;-77
2023/08/15 02:09:59;;;;;;;14.40;11.00;;;;;;;21.06;100.00;97964.75;5053736;28;20584;-77
2023/08/15 02:12:25;;;;;;;12.83;11.40;;;;;;;21.06;100.00;97967.44;5054023;28;20675;-77
2023/08/15 02:14:53;;;;;;;11.77;10.30;;;;;;;21.06;100.00;97964.75;5053931;28;20208;-77
2023/08/15 02:17:19;;;;;;;11.83;10.50;;;;;;;21.03;100.00;97951.66;5054120;28;20204;-77
2023/08/15 02:19:46;;;;;;;13.37;11.33;;;;;;;21.01;100.00;97961.75;5053554;28;20224;-77
2023/08/15 02:22:12;;;;;;;12.67;10.80;;;;;;;21.05;100.00;97960.41;5053845;28;20216;-77
2023/08/15 02:24:39;;;;;;;12.63;11.33;;;;;;;21.06;100.00;97967.44;5053807;28;20204;-77
2023/08/15 02:27:05;;;;;;;11.87;10.60;;;;;;;21.04;100.00;97958.69;5053572;28;20228;-77
2023/08/15 02:32:10;;;;;;;12.53;11.00;;;;;;;21.00;100.00;97964.59;5051167;28;20212;-82
2023/08/15 02:34:37;;;;;;;12.20;10.63;;;;;;;21.03;100.00;97970.47;5055369;28;20205;-84
2023/08/15 02:37:04;;;;;;;11.73;9.87;;;;;;;21.02;100.00;97960.72;5055710;28;20214;-84
2023/08/15 02:39:30;;;;;;;11.53;10.03;;;;;;;21.02;100.00;97957.22;5053072;28;20262;-83
2023/08/15 02:41:57;;;;;;;12.13;10.73;;;;;;;21.05;100.00;97955.03;5054838;28;20235;-83
2023/08/15 02:44:23;;;;;;;11.87;9.80;;;;;;;21.02;100.00;97952.66;5055810;28;20220;-82
2023/08/15 02:46:50;;;;;;;11.83;10.57;;;;;;;21.05;100.00;97951.47;5055746;28;20231;-84
2023/08/15 02:49:17;;;;;;;13.10;10.80;;;;;;;21.04;100.00;97949.81;5054422;28;20226;-82
2023/08/15 02:51:44;;;;;;;12.03;9.80;;;;;;;21.07;100.00;97949.44;5054583;28;20265;-83
2023/08/15 02:54:10;;;;;;;11.60;9.90;;;;;;;21.06;100.00;97947.78;5054907;28;20208;-84
2023/08/15 02:56:37;;;;;;;10.97;9.40;;;;;;;21.03;100.00;97946.28;5055534;28;20212;-83
2023/08/15 02:59:04;;;;;;;11.37;10.20;;;;;;;21.06;100.00;97954.00;5054780;28;20211;-83
2023/08/15 03:01:30;;;;;;;11.13;9.07;;;;;;;21.05;100.00;97957.72;5055989;28;20836;-83
2023/08/15 03:03:57;;;;;;;13.43;10.27;;;;;;;21.07;100.00;97958.38;5056567;28;20583;-83
2023/08/15 03:06:25;;;;;;;10.57;9.43;;;;;;;21.11;100.00;97959.69;5055716;28;20878;-83
2023/08/15 03:08:52;;;;;;;12.27;9.67;;;;;;;21.10;100.00;97952.63;5055875;28;20208;-82
2023/08/15 03:11:18;;;;;;;10.57;9.20;;;;;;;21.09;100.00;97942.06;5054970;28;20228;-84
2023/08/15 03:13:44;;;;;;;10.17;9.03;;;;;;;21.06;100.00;97945.94;5054688;28;20208;-84
2023/08/15 03:16:11;;;;;;;11.10;9.93;;;;;;;21.12;100.00;97952.44;5054705;28;20208;-84
2023/08/15 03:18:37;;;;;;;10.87;9.70;;;;;;;21.11;100.00;97962.38;5054550;28;20569;-84
2023/08/15 03:21:05;;;;;;;11.97;10.03;;;;;;;21.11;100.00;97958.84;5054698;28;20612;-83
2023/08/15 03:23:33;;;;;;;9.87;8.87;;;;;;;21.10;100.00;97966.06;5054559;28;20204;-83
2023/08/15 03:26:01;;;;;;;10.40;9.30;;;;;;;21.10;100.00;97966.06;5054006;28;20204;-83
2023/08/15 03:28:28;;;;;;;9.90;8.90;;;;;;;21.08;100.00;97965.41;5054883;28;20228;-84
2023/08/15 03:30:54;;;;;;;9.83;8.87;;;;;;;21.08;100.00;97960.03;5054681;28;20247;-83
2023/08/15 03:33:22;;;;;;;10.87;8.97;;;;;;;21.03;100.00;97969.63;5054608;28;20211;-82
2023/08/15 03:35:50;;;;;;;9.47;8.47;;;;;;;20.97;100.00;97970.34;5056412;28;20266;-84
2023/08/15 03:38:17;;;;;;;10.50;8.63;;;;;;;20.91;100.00;97974.53;5054447;28;20205;-81
2023/08/15 03:40:46;;;;;;;10.37;8.97;;;;;;;20.90;100.00;97986.31;5054000;28;20722;-84
2023/08/15 03:43:13;;;;;;;10.70;8.60;;;;;;;20.87;100.00;97992.00;5057092;28;20200;-84
2023/08/15 03:45:40;;;;;;;11.10;9.20;;;;;;;20.85;100.00;97993.19;5055809;28;20204;-83
2023/08/15 03:48:08;;;;;;;9.70;8.80;;;;;;;20.78;100.00;97987.66;5056679;28;20234;-84
2023/08/15 03:50:35;;;;;;;10.90;9.53;;;;;;;20.77;100.00;97985.13;5055621;28;20232;-83
2023/08/15 03:53:02;;;;;;;10.70;9.60;;;;;;;20.73;100.00;97990.03;5056198;28;20203;-83
2023/08/15 03:55:29;;;;;;;11.43;9.63;;;;;;;20.69;100.00;97986.03;5057368;28;20666;-83
2023/08/15 03:57:56;;;;;;;11.43;10.07;;;;;;;20.67;100.00;97990.72;5058440;28;20235;-83
2023/08/15 04:00:24;;;;;;;11.97;10.10;;;;;;;20.63;100.00;98000.13;5058051;28;20246;-83
2023/08/15 04:02:51;;;;;;;11.43;10.00;;;;;;;20.56;100.00;98001.84;5058867;28;20204;-82
2023/08/15 04:05:18;;;;;;;11.50;9.17;;;;;;;20.52;100.00;98000.50;5057922;28;20221;-83
2023/08/15 04:07:44;;;;;;;11.77;9.60;;;;;;;20.52;100.00;98000.50;5057293;28;20258;-83
2023/08/15 04:10:13;;;;;;;10.63;9.53;;;;;;;20.48;100.00;98006.38;5057636;28;20228;-83
2023/08/15 04:12:39;;;;;;;11.63;10.30;;;;;;;20.42;100.00;98005.19;5056027;28;20203;-83
2023/08/15 04:15:08;;;;;;;11.87;9.97;;;;;;;20.47;100.00;98015.44;5055272;28;20215;-83
2023/08/15 04:17:34;;;;;;;11.17;9.97;;;;;;;20.46;100.00;98014.59;5057008;28;20218;-84
2023/08/15 04:20:02;;;;;;;10.50;9.40;;;;;;;20.47;100.00;98026.19;5056156;28;20706;-83
2023/08/15 04:22:28;;;;;;;12.97;10.60;;;;;;;20.53;100.00;98020.97;5056420;28;20212;-83
2023/08/15 04:24:55;;;;;;;12.77;11.13;;;;;;;20.56;100.00;98031.38;5056330;28;20222;-83
2023/08/15 04:27:21;;;;;;;13.30;11.33;;;;;;;20.62;100.00;98038.75;5056060;28;20254;-83
2023/08/15 04:29:48;;;;;;;11.07;9.90;;;;;;;20.67;100.00;98038.22;5056087;28;20614;-83
2023/08/15 04:32:16;;;;;;;11.07;9.93;;;;;;;20.69;100.00;98034.38;5056480;28;20218;-84
2023/08/15 04:34:43;;;;;;;11.00;9.60;;;;;;;20.68;100.00;98029.16;5055601;28;20208;-82
2023/08/15 04:37:09;;;;;;;9.83;8.83;;;;;;;20.65;100.00;98016.06;5055528;28;20258;-84
2023/08/15 04:39:36;;;;;;;10.00;9.00;;;;;;;20.64;100.00;98030.50;5055166;28;20583;-84
2023/08/15 04:42:02;;;;;;;11.37;9.53;;;;;;;20.58;100.00;98018.59;5054887;28;20310;-82
2023/08/15 04:44:29;;;;;;;9.57;8.33;;;;;;;20.54;100.00;98036.06;5054199;28;20227;-85
2023/08/15 04:46:55;;;;;;;10.00;8.80;;;;;;;20.51;100.00;98044.47;5053452;28;20217;-83
2023/08/15 04:49:23;;;;;;;9.53;8.53;;;;;;;20.50;100.00;98041.94;5052997;28;20210;-83
2023/08/15 04:51:50;;;;;;;10.20;8.80;;;;;;;20.49;100.00;98049.16;5053891;28;20228;-83
2023/08/15 04:54:16;;;;;;;10.63;9.50;;;;;;;20.52;100.00;98051.50;5052739;28;20712;-83
2023/08/15 04:56:43;;;;;;;10.17;9.00;;;;;;;20.58;100.00;98041.91;5052706;28;20213;-83
2023/08/15 04:59:09;;;;;;;11.37;10.10;;;;;;;20.65;100.00;98041.09;5052944;28;20220;-83
2023/08/15 05:01:36;;;;;;;11.33;9.73;;;;;;;20.70;100.00;98033.34;5053070;28;20231;-83
2023/08/15 05:04:02;;;;;;;10.67;9.40;;;;;;;20.79;100.00;98029.63;5057319;28;20207;-83
2023/08/15 05:06:32;;;;;;;14.40;10.87;;;;;;;20.88;100.00;98036.69;5060044;28;20217;-83
2023/08/15 05:08:58;;;;;;;12.73;10.97;;;;;;;20.98;100.00;98037.31;5060478;28;20223;-83
2023/08/15 05:11:25;;;;;;;10.90;9.80;;;;;;;21.02;100.00;98049.41;5064839;28;20227;-81
2023/08/15 05:13:51;;;;;;;10.67;9.57;;;;;;;21.09;100.00;98047.69;5079925;28;20203;-84
2023/08/15 05:16:18;;;;;;;11.77;10.43;;;;;;;21.23;100.00;98052.38;5079745;28;20242;-81
2023/08/15 05:18:44;;;;;;;12.27;10.60;;;;;;;21.31;100.00;98055.03;5079653;28;20214;-82
2023/08/15 05:21:11;;;;;;;11.43;10.33;;;;;;;21.41;100.00;98069.09;5073146;28;20321;-83
2023/08/15 05:23:39;;;;;;;11.17;9.90;;;;;;;21.46;100.00;98074.78;5066068;28;20222;-82
2023/08/15 05:26:06;;;;;;;13.43;9.23;;;;;;;21.52;100.00;98078.63;5070182;28;20212;-83
2023/08/15 05:28:32;;;;;;;10.00;9.00;;;;;;;21.53;100.00;98081.13;5070684;28;20224;-82
2023/08/15 05:30:59;;;;;;;10.87;8.93;;;;;;;21.58;100.00;98075.22;5065157;28;20327;-83
2023/08/15 05:33:25;;;;;;;10.67;9.43;;;;;;;21.61;100.00;98086.47;5062258;28;20737;-85
2023/08/15 05:35:52;;;;;;;10.60;9.50;;;;;;;21.68;100.00;98084.78;5063944;28;20295;-84
2023/08/15 05:38:18;;;;;;;10.33;9.00;;;;;;;21.72;100.00;98080.75;5060454;28;20228;-84
2023/08/15 05:40:46;;;;;;;10.50;9.13;;;;;;;21.79;100.00;98084.41;5059110;28;20232;-84
2023/08/15 05:43:13;;;;;;;11.90;9.37;;;;;;;21.88;100.00;98086.00;5059728;28;20219;-83
2023/08/15 05:45:39;;;;;;;10.50;9.13;;;;;;;21.96;100.00;98082.44;5059198;28;20204;-83
2023/08/15 05:48:07;;;;;;;10.43;8.83;;;;;;;22.03;100.00;98084.25;5058872;28;20235;-83
2023/08/15 05:50:33;;;;;;;11.07;8.93;;;;;;;22.18;100.00;98093.22;5058514;28;20228;-84
2023/08/15 05:53:00;;;;;;;10.70;9.13;;;;;;;22.30;100.00;98102.56;5057719;28;20208;-83
2023/08/15 05:55:26;;;;;;;9.83;8.83;;;;;;;22.66;100.00;98111.72;5055854;28;20231;-84
2023/08/15 05:57:54;;;;;;;9.00;8.07;;;;;;;23.08;100.00;98117.38;5054637;28;20208;-84
2023/08/15 06:00:21;;;;;;;8.90;8.00;;;;;;;23.54;100.00;98136.97;5054077;28;20231;-83
2023/08/15 06:02:47;;;;;;;9.17;8.27;;;;;;;24.00;100.00;98147.34;5054591;28;20232;-84
2023/08/15 06:05:14;;;;;;;8.53;7.60;;;;;;;24.22;100.00;98149.09;5054256;28;20543;-84
2023/08/15 06:07:40;;;;;;;8.03;7.23;;;;;;;24.11;100.00;98152.28;5054224;28;20236;-83
2023/08/15 06:10:08;;;;;;;7.93;7.23;;;;;;;23.96;100.00;98142.53;5053837;28;20699;-84
2023/08/15 06:12:35;;;;;;;8.27;7.47;;;;;;;23.68;100.00;98147.75;5053977;28;20208;-84
2023/08/15 06:15:03;;;;;;;7.97;7.17;;;;;;;23.51;100.00;98159.75;5054077;28;20208;-84
2023/08/15 06:17:29;;;;;;;7.60;6.90;;;;;;;23.82;100.00;98157.69;5054239;28;20208;-84
2023/08/15 06:19:56;;;;;;;7.13;6.43;;;;;;;24.12;100.00;98167.44;5054170;28;20583;-83
2023/08/15 06:22:23;;;;;;;7.57;6.87;;;;;;;24.11;100.00;98165.78;5053990;28;20204;-84
2023/08/15 06:24:49;;;;;;;7.23;6.53;;;;;;;24.21;100.00;98169.00;5053862;28;20215;-84
2023/08/15 06:27:15;;;;;;;9.00;7.07;;;;;;;24.18;100.00;98174.78;5053733;28;20231;-84
2023/08/15 06:29:42;;;;;;;8.07;7.27;;;;;;;24.40;100.00;98165.69;5053548;28;20204;-83
2023/08/15 06:32:25;;;;;;;10.77;7.80;;;;;;;24.37;100.00;98174.16;5053629;28;20216;-84
2023/08/15 06:34:51;;;;;;;7.87;6.53;;;;;;;24.33;100.00;98172.88;5053632;28;20211;-79
2023/08/15 06:37:18;;;;;;;7.87;7.10;;;;;;;24.18;100.00;98180.19;5054023;28;20204;-78
2023/08/15 06:39:44;;;;;;;7.70;6.97;;;;;;;23.98;100.00;98180.97;5052693;28;20679;-77
2023/08/15 06:42:11;;;;;;;8.00;7.20;;;;;;;23.86;100.00;98180.59;5053664;28;20208;-77
2023/08/15 06:44:38;;;;;;;9.30;8.30;;;;;;;23.83;100.00;98182.81;5053402;28;20254;-79
2023/08/15 06:47:07;;;;;;;9.53;8.53;;;;;;;23.77;100.00;98180.88;5053643;28;20244;-77
2023/08/15 06:49:35;;;;;;;8.73;7.87;;;;;;;23.66;100.00;98182.16;5052871;28;20232;-78
2023/08/15 06:52:03;;;;;;;9.93;8.40;;;;;;;23.72;100.00;98191.38;5053152;28;20243;-78
2023/08/15 06:54:29;;;;;;;11.67;9.13;;;;;;;23.70;100.00;98191.56;5053046;28;20589;-78
2023/08/15 06:56:56;;;;;;;10.00;9.00;;;;;;;23.68;100.00;98199.03;5053253;28;20590;-77
2023/08/15 06:59:23;;;;;;;8.13;7.23;;;;;;;23.74;100.00;98182.09;5052939;28;20295;-78
2023/08/15 07:01:50;;;;;;;8.40;7.37;;;;;;;23.81;100.00;98193.81;5053175;28;20231;-79
2023/08/15 07:04:16;;;;;;;9.63;8.00;;;;;;;23.87;100.00;98198.50;5053488;28;20204;-79
2023/08/15 07:06:44;;;;;;;8.70;7.80;;;;;;;23.95;100.00;98195.69;5052958;28;20675;-79
2023/08/15 07:09:11;;;;;;;7.80;7.00;;;;;;;24.06;100.00;98197.91;5052381;28;20235;-79
2023/08/15 07:11:37;;;;;;;7.33;6.63;;;;;;;24.29;100.00;98198.63;5052948;28;20687;-79
2023/08/15 07:14:05;;;;;;;6.67;6.13;;;;;;;24.60;100.00;98206.44;5053007;28;20211;-78
2023/08/15 07:16:31;;;;;;;6.90;6.20;;;;;;;24.84;100.00;98193.41;5052798;28;20341;-79
2023/08/15 07:18:58;;;;;;;8.23;6.90;;;;;;;25.05;100.00;98195.25;5052777;28;20204;-77
2023/08/15 07:21:24;;;;;;;7.80;7.00;;;;;;;25.32;100.00;98200.72;5052388;28;20224;-79
2023/08/15 07:23:52;;;;;;;7.25;6.55;;;;;;;25.45;100.00;98203.53;5049674;28;20441;-80
2023/08/15 07:26:18;;;;;;;7.53;6.83;;;;;;;25.72;100.00;98182.88;5050969;28;20208;-77
2023/08/15 07:28:45;;;;;;;7.43;6.70;;;;;;;25.89;100.00;98185.06;5051753;28;20243;-77
2023/08/15 07:31:12;;;;;;;8.27;7.30;;;;;;;26.08;100.00;98178.91;5051243;28;20319;-77
2023/08/15 07:33:38;;;;;;;7.07;6.47;;;;;;;26.10;100.00;98184.16;5051537;28;20442;-79
2023/08/15 07:36:05;;;;;;;7.40;6.40;;;;;;;26.18;100.00;98192.94;5057653;28;20208;-90
2023/08/15 07:38:31;;;;;;;6.50;5.90;;;;;;;26.21;100.00;98199.81;5068738;28;20207;-89
2023/08/15 07:41:00;;;;;;;6.63;6.03;;;;;;;26.21;100.00;98195.22;5058740;28;20609;-90
2023/08/15 07:43:26;;;;;;;6.97;6.23;;;;;;;26.16;100.00;98211.25;5057776;28;20659;-88
2023/08/15 07:45:53;;;;;;;6.90;6.07;;;;;;;26.21;100.00;98205.25;5055143;28;20204;-89
2023/08/15 07:48:19;;;;;;;6.43;5.83;;;;;;;26.22;100.00;98201.50;5054445;28;20228;-89
2023/08/15 07:50:46;;;;;;;7.13;6.53;;;;;;;26.36;100.00;98193.22;5052883;28;20239;-84
2023/08/15 07:53:12;;;;;;;6.40;5.83;;;;;;;26.38;100.00;98191.13;5055167;28;20220;-90
2023/08/15 07:55:39;;;;;;;7.10;6.30;;;;;;;26.68;98.50;98186.22;5054454;28;20286;-89
2023/08/15 07:58:07;;;;;;;7.00;6.30;;;;;;;26.77;97.22;98174.97;5053093;28;20215;-90
2023/08/15 08:00:33;;;;;;;6.77;6.07;;;;;;;26.83;95.22;98174.13;5052947;28;20661;-90
2023/08/15 08:03:00;;;;;;;6.87;6.23;;;;;;;26.86;91.84;98172.91;5052300;28;20207;-77
2023/08/15 08:05:28;;;;;;;6.87;6.27;;;;;;;26.77;92.78;98169.53;5052540;28;20285;-88
2023/08/15 08:07:54;;;;;;;6.70;6.10;;;;;;;26.73;92.99;98173.72;5051968;28;20204;-79
2023/08/15 08:10:21;;;;;;;7.07;6.17;;;;;;;26.72;92.58;98169.34;5051526;28;20588;-80
2023/08/15 08:12:47;;;;;;;6.43;5.83;;;;;;;26.67;92.97;98179.97;5051682;28;20211;-77
2023/08/15 08:15:15;;;;;;;6.88;6.20;;;;;;;26.62;95.53;98193.31;5051597;28;20211;-78
2023/08/15 08:17:42;;;;;;;6.47;5.70;;;;;;;26.77;97.04;98191.25;5051518;28;20208;-79
2023/08/15 08:20:12;;;;;;;6.97;6.37;;;;;;;26.90;92.78;98179.59;5051428;28;20224;-80
2023/08/15 08:22:38;;;;;;;6.57;5.97;;;;;;;26.95;92.63;98186.06;5051834;28;20208;-80
2023/08/15 08:25:23;;;;;;;7.30;6.50;;;;;;;27.10;91.32;98175.84;5051586;28;20208;-79
2023/08/15 08:27:51;;;;;;;6.23;5.60;;;;;;;27.26;93.63;98190.91;5051773;28;20311;-87
2023/08/15 08:30:21;;;;;;;6.53;5.73;;;;;;;27.56;93.32;98182.09;5066796;22;20228;-79
2023/08/15 08:32:48;;;;;;;6.00;5.50;;;;;;;27.77;90.93;98168.31;5031189;28;20505;-75
2023/08/15 08:35:16;;;;;;;7.43;5.85;;;;;;;27.92;84.28;98155.28;5031281;28;20213;-77
2023/08/15 08:37:42;;;;;;;6.40;5.83;;;;;;;27.84;83.00;98158.25;5031223;28;20212;-79
2023/08/15 08:40:12;;;;;;;5.95;5.35;;;;;;;27.77;84.52;98157.44;5030964;28;20227;-78
2023/08/15 08:42:41;;;;;;;6.15;5.55;;;;;;;27.81;86.61;98175.81;5031119;28;20212;-79
2023/08/15 08:45:09;;;;;;;6.47;5.70;;;;;;;27.85;88.33;98181.66;5031234;28;20216;-79
2023/08/15 08:47:38;;;;;;;6.47;5.85;;;;;;;27.91;89.88;98188.94;5031454;28;20209;-79
2023/08/15 08:50:09;;;;;;;6.50;5.80;;;;;;;27.86;89.35;98178.72;5030707;28;20232;-78
2023/08/15 08:52:38;;;;;;;6.63;6.03;;;;;;;27.87;88.73;98182.25;5031150;28;20216;-78
2023/08/15 08:55:06;;;;;;;7.05;6.35;;;;;;;28.01;89.37;98186.63;5031095;28;20650;-78
2023/08/15 08:57:36;;;;;;;6.93;5.77;;;;;;;28.26;88.68;98184.84;5030998;28;20209;-78
2023/08/15 09:00:07;;;;;;;6.70;6.10;;;;;;;28.51;86.48;98178.50;5030656;28;20211;-78
2023/08/15 09:02:34;;;;;;;6.50;5.80;;;;;;;28.59;83.47;98172.78;5031141;28;20224;-78
2023/08/15 09:05:03;;;;;;;6.30;5.70;;;;;;;28.58;84.99;98176.56;5030982;28;20221;-78
2023/08/15 09:07:32;;;;;;;6.40;5.80;;;;;;;28.43;83.54;98176.00;5030836;28;20211;-78
2023/08/15 09:09:58;;;;;;;5.95;5.25;;;;;;;28.30;84.11;98177.94;5030325;28;20225;-77
2023/08/15 09:12:36;;;;;;;6.40;5.50;;;;;;;28.21;84.33;98188.22;5031094;28;20208;-78
2023/08/15 09:15:05;;;;;;;6.88;6.18;;;;;;;28.17;85.17;98191.56;5030983;28;20208;-78
2023/08/15 09:17:31;;;;;;;6.88;6.18;;;;;;;28.09;86.41;98194.53;5030865;28;20278;-78
2023/08/15 09:20:11;;;;;;;6.78;6.07;;;;;;;28.11;87.24;98192.41;5030493;28;20201;-78
2023/08/15 09:22:39;;;;;;;6.07;5.47;;;;;;;28.15;86.91;98193.69;5030818;28;20216;-79
2023/08/15 09:25:06;;;;;;;6.60;6.00;;;;;;;28.19;84.83;98184.88;5030664;28;20266;-79
2023/08/15 09:27:32;;;;;;;5.90;5.40;;;;;;;28.37;85.27;98187.75;5029939;28;20461;-79
2023/08/15 09:30:07;;;;;;;5.38;4.93;;;;;;;28.58;84.75;98195.59;5029369;28;20449;-79
2023/08/15 09:32:33;;;;;;;6.22;5.72;;;;;;;28.63;85.27;98203.09;5030602;28;20212;-79
2023/08/15 09:34:59;;;;;;;6.68;5.97;;;;;;;28.63;85.32;98193.06;5031051;28;20572;-78
2023/08/15 09:37:27;;;;;;;6.63;6.03;;;;;;;28.66;84.43;98194.50;5031067;28;20209;-79
2023/08/15 09:39:54;;;;;;;6.60;5.82;;;;;;;28.72;84.38;98194.47;5030698;28;20201;-79
2023/08/15 09:42:21;;;;;;;8.05;6.03;;;;;;;28.83;83.14;98191.06;5030717;28;20316;-79
2023/08/15 09:44:50;;;;;;;6.20;5.60;;;;;;;28.90;81.83;98182.81;5030745;28;20213;-79
2023/08/15 09:47:18;;;;;;;7.43;6.10;;;;;;;28.91;82.01;98184.53;5030784;28;20209;-79
2023/08/15 09:49:45;;;;;;;6.55;5.95;;;;;;;28.91;81.53;98184.53;5034114;28;20229;-78
2023/08/15 09:52:12;;;;;;;6.13;5.53;;;;;;;28.97;81.18;98183.66;5034700;28;20298;-79
2023/08/15 09:54:42;;;;;;;6.32;5.72;;;;;;;28.98;80.21;98177.16;5034366;28;20205;-79
2023/08/15 09:57:08;;;;;;;6.25;5.65;;;;;;;28.90;79.29;98171.94;5034289;28;20315;-78
2023/08/15 09:59:36;;;;;;;7.15;6.15;;;;;;;28.87;79.92;98175.94;5033759;28;20578;-78
2023/08/15 10:02:05;;;;;;;6.90;6.20;;;;;;;29.04;77.99;98168.13;5033943;28;20241;-79
2023/08/15 10:04:34;;;;;;;6.65;5.95;;;;;;;29.16;76.59;98169.88;5034187;28;20205;-78
2023/08/15 10:07:02;;;;;;;6.95;6.13;;;;;;;29.25;77.88;98182.19;5034032;28;20215;-78
2023/08/15 10:09:32;;;;;;;6.18;5.40;;;;;;;29.39;73.42;98155.63;5033680;28;20254;-78
2023/08/15 10:12:01;;;;;;;3.80;3.50;;;;;;;29.41;64.62;98127.13;5034330;28;20228;-78
2023/08/15 10:14:28;;;;;;;3.33;2.80;;;;;;;29.39;60.55;98110.19;5033659;28;20209;-79
2023/08/15 10:16:55;;;;;;;4.03;2.80;;;;;;;29.37;60.99;98125.09;5033880;28;20243;-78
2023/08/15 10:19:29;;;;;;;3.13;2.60;;;;;;;29.29;56.86;98117.22;5033536;28;20201;-79
2023/08/15 10:21:55;;;;;;;4.10;2.83;;;;;;;29.06;54.98;98114.28;5033781;28;20212;-79
2023/08/15 10:24:22;;;;;;;3.38;2.92;;;;;;;28.88;53.12;98097.88;5033670;28;20205;-81
2023/08/15 10:26:52;;;;;;;2.80;2.60;;;;;;;28.95;54.62;98115.00;5033448;28;20216;-79
2023/08/15 10:29:20;;;;;;;2.70;2.50;;;;;;;28.96;54.98;98116.66;5033489;28;20237;-80
2023/08/15 10:31:46;;;;;;;4.35;3.15;;;;;;;28.86;54.77;98111.69;5033331;28;20354;-78
2023/08/15 10:34:14;;;;;;;3.65;2.70;;;;;;;28.92;54.89;98120.88;5033421;28;20215;-80
2023/08/15 10:36:41;;;;;;;6.22;3.00;;;;;;;28.89;55.23;98126.75;5033480;28;20235;-77
2023/08/15 10:39:08;;;;;;;3.00;2.80;;;;;;;29.00;56.42;98140.50;5033185;28;20231;-78
2023/08/15 10:41:36;;;;;;;3.17;2.88;;;;;;;29.06;57.85;98155.97;5033284;28;20232;-79
2023/08/15 10:44:05;;;;;;;3.88;3.30;;;;;;;29.06;55.41;98136.91;5033374;28;20209;-76
2023/08/15 10:46:35;;;;;;;5.15;3.63;;;;;;;29.10;55.78;98145.47;5033599;28;20576;-78
2023/08/15 10:49:07;;;;;;;3.70;3.20;;;;;;;29.05;53.28;98128.94;5033105;28;20236;-78
2023/08/15 10:51:35;;;;;;;3.17;2.88;;;;;;;29.08;53.48;98126.63;5033054;28;20231;-78
2023/08/15 10:54:03;;;;;;;4.82;2.97;;;;;;;29.14;55.26;98143.94;5032984;28;20208;-78
2023/08/15 10:56:31;;;;;;;3.88;2.60;;;;;;;29.15;54.27;98131.97;5033131;28;20209;-78
2023/08/15 10:58:59;;;;;;;3.30;2.70;;;;;;;29.21;54.77;98134.66;5032179;28;20212;-78
2023/08/15 11:01:27;;;;;;;3.60;2.90;;;;;;;29.13;53.71;98124.06;5032864;28;20226;-79
2023/08/15 11:03:57;;;;;;;3.40;2.67;;;;;;;29.22;54.11;98124.63;5029951;28;20295;-77
2023/08/15 11:06:24;;;;;;;3.05;2.40;;;;;;;29.38;52.90;98115.84;5029969;28;20577;-76
2023/08/15 11:08:52;;;;;;;3.85;2.70;;;;;;;29.53;51.77;98114.47;5030033;28;20216;-76
2023/08/15 11:11:19;;;;;;;4.93;3.00;;;;;;;29.66;50.09;98091.72;5031597;28;20595;-76
2023/08/15 11:13:48;;;;;;;3.85;2.70;;;;;;;29.55;51.34;98111.53;5032934;28;20555;-76
2023/08/15 11:16:16;;;;;;;3.30;2.47;;;;;;;29.43;50.21;98108.69;5031546;28;20212;-76
2023/08/15 11:18:43;;;;;;;3.15;2.30;;;;;;;29.35;51.13;98110.88;5029886;28;20209;-77
2023/08/15 11:21:12;;;;;;;3.33;3.03;;;;;;;29.26;50.72;98112.19;5029240;28;20225;-78
2023/08/15 11:23:39;;;;;;;2.58;2.30;;;;;;;29.31;51.28;98121.38;5030096;28;20698;-78
2023/08/15 11:26:07;;;;;;;3.72;3.17;;;;;;;29.22;51.02;98122.72;5032793;28;20601;-78